Погода METAR - Абакан

Код аэропорта ICAO:
Кемерово, Абакан, Красноярск, Новосибирск
Код METAR: UNAA 241200Z 22005MPS 9000 NSC M00/M06 Q1014 R20/390035 NOSIG RMK QFE738
TAF UNAA 241058Z 2412/2512 20003MPS 3100 FU BR NSC 
     TEMPO 2415/2424 1700 BR FU 
     TEMPO 2500/2503 1000 BR FU
       

Погода - Сейчас

Время: 2020-01-24 19:00, местное
Направление ветра: Юго-запад (220°)
Скорость ветра: 5 м/с
Видимость:
Температура: 0°C
Точка росы: -6°C
Атмосферное давление: 1014 гПа

Архив погоды

Время, местное Направление Скорость, м/с Температура, °C Точка росы, °C Давление, гПа
2020-01-24 19:00 ЮЗ (220°) 5 0 -6 1014
2020-01-24 18:00 ЮЗ (210°) 3 -2 -6 1015
2020-01-24 06:30 Ю (190°) 2 -10 -12 1018
2020-01-23 13:30 ЗСЗ (290°) 2 0 1900
2020-01-23 01:30 Штиль 0 -18 -20 1024
2020-01-16 21:30 Штиль 0 0 0
2020-01-09 07:30 Штиль 0 0 0
2020-01-08 14:30 Штиль 0 0 1900
2020-01-07 01:30 ЮЮВ (160°) 1 -18 -20 1026
2020-01-05 20:00 Штиль 0 0 0
2020-01-04 21:00 ЮЗ (220°) 5 -5 -8 1025
2020-01-03 05:00 ЮЮЗ (200°) 5 -2 -7 1022
2020-01-01 07:00 ВСВ (60°) 1 0 1700
2019-12-29 18:30 Штиль 0 -29 -33 1029
2019-12-25 07:00 ЮЮЗ (200°) 6 -7 -12 1022
2019-12-24 22:30 Штиль 0 -15 -17 1023
2019-12-24 21:00 Штиль 0 -16 -17 1024
2019-12-23 05:30 Штиль 0 0 0
2019-12-21 16:00 СЗ (320°) 1 -8 -10 1017
2019-12-20 01:30 Штиль 0 0 0
2019-12-19 05:00 Ю (180°) 2 -16 -18 1027
2019-12-17 06:30 Штиль 0 -16 -17 1033
2019-12-16 18:30 Штиль 0 -11 -13 1035
2019-12-16 11:00 Переменный 1 -12 -14 1036
2019-12-13 08:30 Штиль 0 0 600
2019-12-09 16:30 ЮЗ (230°) 2 0 -4 1027
2019-12-02 01:00 Ю (190°) 1 -4 -10 1034
2019-12-01 19:00 ЮЮВ (160°) 1 -4 -10 1035
2019-11-30 15:00 ЗЮЗ (260°) 2 -6 -12 1039
2019-11-29 20:30 ЗЮЗ (250°) 7 -4 -11 1030
2019-11-27 08:00 Штиль 0 -19 -21 1035
2019-11-24 23:00 ЮВ (130°) 1 -11 -13 1027
2019-11-24 12:00 Ю (190°) 3 -10 -15 1029
2019-11-17 06:30 ЮЗ (230°) 1 -18 -21 1035
2019-11-16 10:00 Штиль 0 -22 -25 1044
2019-11-12 21:30 ЮЮВ (150°) 3 -10 -12 1023
2019-11-09 02:00 ЮЗ (210°) 5 5 -2 1012
2019-11-08 21:00 ЗЮЗ (250°) 7 8 -4 1011
2019-11-08 07:00 Ю (190°) 5 0 -4 1021
2019-11-07 00:30 ЮЮЗ (200°) 1 2 -2 1025
2019-11-02 04:00 З (280°) 2 5 4 1012
2019-10-31 16:00 ЗСЗ (290°) 1 14 4 1017
2019-10-31 11:30 ЮЮЗ (200°) 4 9 4 1017
2019-10-30 03:00 С (350°) 2 8 2 1013
2019-10-24 04:00 Ю (170°) 3 2 -5 1022
2019-10-23 10:30 Ю (180°) 2 -4 -6 1028
2019-10-23 08:30 Штиль 0 -6 -7 1028
2019-10-23 07:30 Штиль 0 -7 -8 1028